createdAt,value
2022-12-28T00:00:35.058Z,56.70
2022-12-28T00:07:10.573Z,56.47
2022-12-28T00:12:58.078Z,56.77
2022-12-28T00:19:23.021Z,57.02
2022-12-28T00:25:47.727Z,56.98
2022-12-28T00:32:13.949Z,57.16
2022-12-28T00:41:03.064Z,57.22
2022-12-28T00:46:15.001Z,57.13
2022-12-28T00:52:08.818Z,57.30
2022-12-28T01:04:39.161Z,57.42
2022-12-28T01:11:08.316Z,57.40
2022-12-28T01:18:14.582Z,57.22
2022-12-28T01:24:23.738Z,57.63
2022-12-28T01:31:25.994Z,57.73
2022-12-28T01:37:41.229Z,57.89
2022-12-28T01:45:02.449Z,57.96
2022-12-28T01:52:15.993Z,58.02
2022-12-28T01:59:07.299Z,58.01
2022-12-28T02:07:17.691Z,58.16
2022-12-28T02:20:21.972Z,58.46
2022-12-28T02:33:10.495Z,58.81
2022-12-28T02:39:51.506Z,59.11
2022-12-28T02:53:22.926Z,59.07
2022-12-28T03:00:03.285Z,59.10
2022-12-28T03:12:48.280Z,59.47
2022-12-28T03:21:15.881Z,59.63
2022-12-28T03:39:44.765Z,59.31
2022-12-28T03:53:43.616Z,59.21
2022-12-28T03:59:30.629Z,59.09
2022-12-28T04:20:00.304Z,58.88
2022-12-28T04:44:10.266Z,58.72
2022-12-28T04:50:00.225Z,58.74
2022-12-28T04:55:32.412Z,58.90
2022-12-28T05:01:24.758Z,59.44
2022-12-28T05:07:40.562Z,59.85
2022-12-28T05:14:03.530Z,60.02
2022-12-28T05:21:56.941Z,60.58
2022-12-28T05:28:20.497Z,60.90
2022-12-28T05:34:33.316Z,61.35
2022-12-28T05:40:37.620Z,61.55
2022-12-28T05:47:16.160Z,63.87
2022-12-28T05:53:39.444Z,62.42
2022-12-28T05:59:48.296Z,62.15
2022-12-28T06:05:24.531Z,62.11
2022-12-28T06:11:24.373Z,62.62
2022-12-28T06:17:53.547Z,62.69
2022-12-28T06:23:25.011Z,62.49
2022-12-28T06:43:48.938Z,63.19
2022-12-28T06:49:28.644Z,63.78
2022-12-28T06:56:37.534Z,64.18
2022-12-28T07:02:49.093Z,63.85
2022-12-28T07:16:09.407Z,64.74
2022-12-28T07:28:10.025Z,63.51
2022-12-28T08:08:46.328Z,64.25
2022-12-28T08:25:29.359Z,62.97
2022-12-28T08:30:12.281Z,62.06
2022-12-28T08:52:14.405Z,59.14
2022-12-28T09:05:35.923Z,56.52
2022-12-28T09:48:52.387Z,54.52
2022-12-28T09:55:07.826Z,54.75
2022-12-28T10:01:14.016Z,53.37
2022-12-28T10:06:32.982Z,53.26
2022-12-28T10:12:10.666Z,53.50
2022-12-28T10:17:57.203Z,52.01
2022-12-28T10:23:14.908Z,51.81
2022-12-28T10:29:19.060Z,51.73
2022-12-28T10:35:57.231Z,51.29
2022-12-28T11:23:23.347Z,50.17
2022-12-28T11:30:17.017Z,50.05
2022-12-28T11:41:33.636Z,49.88
2022-12-28T11:47:33.676Z,49.68
2022-12-28T12:08:03.476Z,49.08
2022-12-28T12:20:22.733Z,48.88
2022-12-28T12:26:58.874Z,48.27
2022-12-28T12:32:49.869Z,48.06
2022-12-28T12:38:45.645Z,48.10
2022-12-28T12:44:59.334Z,47.47
2022-12-28T12:51:05.459Z,47.15
2022-12-28T12:57:00.248Z,46.37
2022-12-28T13:02:59.542Z,46.49
2022-12-28T13:09:15.304Z,45.97
2022-12-28T13:15:22.564Z,46.19
2022-12-28T13:21:22.682Z,47.12
2022-12-28T13:27:12.335Z,46.54
2022-12-28T13:33:18.138Z,46.87
2022-12-28T13:39:18.850Z,47.04
2022-12-28T13:45:51.017Z,47.34
2022-12-28T13:51:59.564Z,47.23
2022-12-28T13:58:32.899Z,46.86
2022-12-28T14:04:56.245Z,46.53
2022-12-28T14:11:02.423Z,46.55
2022-12-28T14:17:00.496Z,46.57
2022-12-28T14:23:13.707Z,46.86
2022-12-28T14:29:26.875Z,46.82
2022-12-28T14:35:19.576Z,46.99
2022-12-28T14:41:37.125Z,46.82
2022-12-28T14:47:34.515Z,46.48
2022-12-28T14:53:23.045Z,46.73
2022-12-28T14:59:47.607Z,46.48
2022-12-28T15:06:13.447Z,46.73
2022-12-28T15:12:12.232Z,46.99
2022-12-28T15:17:43.483Z,47.08
2022-12-28T15:23:46.693Z,47.16
2022-12-28T15:30:16.286Z,47.34
2022-12-28T15:36:20.771Z,47.51
2022-12-28T15:42:45.338Z,47.60
2022-12-28T15:48:47.691Z,47.86
2022-12-28T15:54:47.513Z,47.83
2022-12-28T16:01:01.991Z,47.91
2022-12-28T16:07:27.136Z,47.91
2022-12-28T16:13:51.970Z,48.29
2022-12-28T16:19:15.900Z,48.59
2022-12-28T16:24:32.333Z,48.42
2022-12-28T16:30:26.935Z,48.58
2022-12-28T16:36:40.341Z,48.62
2022-12-28T16:42:27.338Z,48.58
2022-12-28T16:47:57.049Z,48.85
2022-12-28T16:53:06.526Z,48.89
2022-12-28T16:58:24.380Z,48.94
2022-12-28T17:03:28.796Z,48.93
2022-12-28T17:08:35.683Z,49.14
2022-12-28T17:13:42.337Z,49.21
2022-12-28T17:19:16.055Z,49.38
2022-12-28T17:24:47.929Z,49.86
2022-12-28T17:30:39.508Z,50.15
2022-12-28T17:37:38.311Z,49.65
2022-12-28T17:43:38.347Z,49.86
2022-12-28T17:56:30.282Z,50.32
2022-12-28T18:03:18.958Z,50.71
2022-12-28T18:30:10.243Z,51.46
2022-12-28T18:36:38.942Z,51.33
2022-12-28T18:49:25.313Z,50.96
2022-12-28T18:55:11.736Z,51.16
2022-12-28T19:01:32.873Z,51.06
2022-12-28T19:07:19.440Z,50.90
2022-12-28T19:12:44.633Z,51.15
2022-12-28T19:18:39.029Z,52.68
2022-12-28T19:31:23.249Z,52.62
2022-12-28T19:36:32.257Z,53.28
2022-12-28T19:41:35.987Z,53.92
2022-12-28T19:47:19.794Z,53.91
2022-12-28T19:53:22.489Z,54.29
2022-12-28T19:58:52.333Z,55.64
2022-12-28T20:04:27.333Z,56.16
2022-12-28T20:09:30.515Z,55.49
2022-12-28T20:14:33.701Z,55.93
2022-12-28T20:19:37.123Z,55.87
2022-12-28T20:24:40.344Z,56.56
2022-12-28T20:29:44.646Z,56.81
2022-12-28T20:34:47.957Z,56.91
2022-12-28T20:39:51.112Z,57.02
2022-12-28T20:44:57.447Z,57.47
2022-12-28T20:50:00.560Z,57.97
2022-12-28T20:55:03.922Z,58.08
2022-12-28T21:00:08.599Z,58.36
2022-12-28T21:05:16.488Z,58.19
2022-12-28T21:10:19.660Z,58.63
2022-12-28T21:15:22.851Z,58.71
2022-12-28T21:20:26.774Z,58.80
2022-12-28T21:25:33.760Z,59.14
2022-12-28T21:30:37.239Z,59.52
2022-12-28T21:35:41.054Z,59.17
2022-12-28T21:40:44.209Z,59.66
2022-12-28T21:46:07.498Z,59.47
2022-12-28T21:51:31.758Z,59.10
2022-12-28T21:56:35.917Z,59.51
2022-12-28T22:02:11.014Z,59.73
2022-12-28T22:07:17.149Z,58.73
2022-12-28T22:12:38.666Z,58.21
2022-12-28T22:17:43.136Z,57.78
2022-12-28T22:22:46.541Z,57.04
2022-12-28T22:27:49.772Z,56.06
2022-12-28T22:32:53.051Z,55.39
2022-12-28T22:37:56.259Z,54.42
2022-12-28T22:42:59.479Z,53.65
2022-12-28T22:48:02.758Z,53.41
2022-12-28T22:53:05.914Z,52.80
2022-12-28T22:58:09.208Z,52.16
2022-12-28T23:03:12.986Z,51.42
2022-12-28T23:08:16.658Z,51.26
2022-12-28T23:13:20.070Z,51.09
2022-12-28T23:18:41.770Z,50.56
2022-12-28T23:24:03.824Z,50.54
2022-12-28T23:29:07.115Z,50.36
2022-12-28T23:35:03.947Z,50.04
2022-12-28T23:41:17.944Z,49.77
2022-12-28T23:47:21.993Z,49.22
2022-12-28T23:52:48.918Z,49.09
2022-12-28T23:58:05.166Z,48.95
